sensor_id;sensor_type;location;lat;lon;timestamp;P1;durP1;ratioP1;P2;durP2;ratioP2
59786;SDS011;45672;51.612;5.536;2024-03-22T00:00:07;49.33;;;25.83;;
59786;SDS011;45672;51.612;5.536;2024-03-22T00:02:36;51.25;;;27.33;;
59786;SDS011;45672;51.612;5.536;2024-03-22T00:05:02;54.38;;;27.75;;
59786;SDS011;45672;51.612;5.536;2024-03-22T00:07:27;48.60;;;26.67;;
59786;SDS011;45672;51.612;5.536;2024-03-22T00:09:53;53.55;;;27.25;;
59786;SDS011;45672;51.612;5.536;2024-03-22T00:12:18;56.33;;;27.48;;
59786;SDS011;45672;51.612;5.536;2024-03-22T00:14:43;57.05;;;27.63;;
59786;SDS011;45672;51.612;5.536;2024-03-22T00:17:09;52.83;;;27.58;;
59786;SDS011;45672;51.612;5.536;2024-03-22T00:19:34;50.03;;;27.95;;
59786;SDS011;45672;51.612;5.536;2024-03-22T00:22:00;51.55;;;27.60;;
59786;SDS011;45672;51.612;5.536;2024-03-22T00:24:25;52.00;;;29.00;;
59786;SDS011;45672;51.612;5.536;2024-03-22T00:26:50;49.55;;;27.33;;
59786;SDS011;45672;51.612;5.536;2024-03-22T00:29:16;51.30;;;28.65;;
59786;SDS011;45672;51.612;5.536;2024-03-22T00:31:41;50.35;;;27.98;;
59786;SDS011;45672;51.612;5.536;2024-03-22T00:34:06;49.95;;;27.20;;
59786;SDS011;45672;51.612;5.536;2024-03-22T00:36:32;52.40;;;27.67;;
59786;SDS011;45672;51.612;5.536;2024-03-22T00:38:57;47.70;;;28.02;;
59786;SDS011;45672;51.612;5.536;2024-03-22T00:41:22;59.90;;;29.38;;
59786;SDS011;45672;51.612;5.536;2024-03-22T00:43:48;54.08;;;28.02;;
59786;SDS011;45672;51.612;5.536;2024-03-22T00:46:13;50.53;;;28.02;;
59786;SDS011;45672;51.612;5.536;2024-03-22T00:48:38;51.30;;;28.00;;
59786;SDS011;45672;51.612;5.536;2024-03-22T00:51:04;53.53;;;29.35;;
59786;SDS011;45672;51.612;5.536;2024-03-22T00:53:29;53.95;;;28.88;;
59786;SDS011;45672;51.612;5.536;2024-03-22T00:55:55;55.35;;;28.17;;
59786;SDS011;45672;51.612;5.536;2024-03-22T00:58:21;50.28;;;29.20;;
59786;SDS011;45672;51.612;5.536;2024-03-22T01:00:46;47.40;;;28.80;;
59786;SDS011;45672;51.612;5.536;2024-03-22T01:03:12;51.47;;;27.88;;
59786;SDS011;45672;51.612;5.536;2024-03-22T01:05:37;51.05;;;28.20;;
59786;SDS011;45672;51.612;5.536;2024-03-22T01:08:03;53.63;;;28.48;;
59786;SDS011;45672;51.612;5.536;2024-03-22T01:10:32;50.13;;;29.35;;
59786;SDS011;45672;51.612;5.536;2024-03-22T01:12:58;52.03;;;29.42;;
59786;SDS011;45672;51.612;5.536;2024-03-22T01:15:23;51.53;;;28.92;;
59786;SDS011;45672;51.612;5.536;2024-03-22T01:17:48;47.13;;;27.52;;
59786;SDS011;45672;51.612;5.536;2024-03-22T01:20:14;48.05;;;28.55;;
59786;SDS011;45672;51.612;5.536;2024-03-22T01:22:39;52.45;;;29.85;;
59786;SDS011;45672;51.612;5.536;2024-03-22T01:25:05;49.05;;;28.40;;
59786;SDS011;45672;51.612;5.536;2024-03-22T01:27:31;52.10;;;29.42;;
59786;SDS011;45672;51.612;5.536;2024-03-22T01:29:56;45.25;;;27.58;;
59786;SDS011;45672;51.612;5.536;2024-03-22T01:32:21;51.72;;;27.10;;
59786;SDS011;45672;51.612;5.536;2024-03-22T01:34:47;50.28;;;29.42;;
59786;SDS011;45672;51.612;5.536;2024-03-22T01:37:12;49.65;;;27.90;;
59786;SDS011;45672;51.612;5.536;2024-03-22T01:39:37;50.20;;;28.30;;
59786;SDS011;45672;51.612;5.536;2024-03-22T01:42:03;51.80;;;26.90;;
59786;SDS011;45672;51.612;5.536;2024-03-22T01:44:28;48.63;;;28.08;;
59786;SDS011;45672;51.612;5.536;2024-03-22T01:46:55;46.75;;;26.60;;
59786;SDS011;45672;51.612;5.536;2024-03-22T01:49:21;53.88;;;29.33;;
59786;SDS011;45672;51.612;5.536;2024-03-22T01:51:47;42.67;;;26.63;;
59786;SDS011;45672;51.612;5.536;2024-03-22T01:54:13;47.15;;;26.30;;
59786;SDS011;45672;51.612;5.536;2024-03-22T01:56:41;49.63;;;27.90;;
59786;SDS011;45672;51.612;5.536;2024-03-22T01:59:06;52.65;;;28.17;;
59786;SDS011;45672;51.612;5.536;2024-03-22T02:01:35;51.72;;;27.52;;
59786;SDS011;45672;51.612;5.536;2024-03-22T02:04:00;48.88;;;28.05;;
59786;SDS011;45672;51.612;5.536;2024-03-22T02:06:26;48.78;;;28.45;;
59786;SDS011;45672;51.612;5.536;2024-03-22T02:08:51;44.60;;;26.02;;
59786;SDS011;45672;51.612;5.536;2024-03-22T02:11:17;43.05;;;27.58;;
59786;SDS011;45672;51.612;5.536;2024-03-22T02:13:43;45.45;;;25.50;;
59786;SDS011;45672;51.612;5.536;2024-03-22T02:16:09;47.25;;;27.00;;
59786;SDS011;45672;51.612;5.536;2024-03-22T02:18:34;47.65;;;27.40;;
59786;SDS011;45672;51.612;5.536;2024-03-22T02:21:00;43.72;;;26.75;;
59786;SDS011;45672;51.612;5.536;2024-03-22T02:23:32;43.15;;;26.15;;
59786;SDS011;45672;51.612;5.536;2024-03-22T02:25:57;45.00;;;26.27;;
59786;SDS011;45672;51.612;5.536;2024-03-22T02:28:23;46.17;;;26.95;;
59786;SDS011;45672;51.612;5.536;2024-03-22T02:30:48;42.85;;;25.95;;
59786;SDS011;45672;51.612;5.536;2024-03-22T02:33:14;44.92;;;26.25;;
59786;SDS011;45672;51.612;5.536;2024-03-22T02:35:39;43.88;;;26.33;;
59786;SDS011;45672;51.612;5.536;2024-03-22T02:38:04;45.00;;;27.42;;
59786;SDS011;45672;51.612;5.536;2024-03-22T02:40:30;48.08;;;26.23;;
59786;SDS011;45672;51.612;5.536;2024-03-22T02:42:55;43.03;;;26.67;;
59786;SDS011;45672;51.612;5.536;2024-03-22T02:45:20;43.97;;;26.08;;
59786;SDS011;45672;51.612;5.536;2024-03-22T02:47:46;47.50;;;27.52;;
59786;SDS011;45672;51.612;5.536;2024-03-22T02:50:11;46.72;;;26.65;;
59786;SDS011;45672;51.612;5.536;2024-03-22T02:52:37;43.72;;;26.20;;
59786;SDS011;45672;51.612;5.536;2024-03-22T02:55:02;43.63;;;27.17;;
59786;SDS011;45672;51.612;5.536;2024-03-22T02:57:29;44.40;;;26.48;;
59786;SDS011;45672;51.612;5.536;2024-03-22T02:59:54;42.22;;;25.88;;
59786;SDS011;45672;51.612;5.536;2024-03-22T03:02:19;43.60;;;26.20;;
59786;SDS011;45672;51.612;5.536;2024-03-22T03:04:44;45.35;;;27.52;;
59786;SDS011;45672;51.612;5.536;2024-03-22T03:07:10;42.75;;;27.02;;
59786;SDS011;45672;51.612;5.536;2024-03-22T03:09:36;46.40;;;26.35;;
59786;SDS011;45672;51.612;5.536;2024-03-22T03:12:01;44.70;;;25.77;;
59786;SDS011;45672;51.612;5.536;2024-03-22T03:14:26;45.85;;;26.58;;
59786;SDS011;45672;51.612;5.536;2024-03-22T03:16:51;45.63;;;26.90;;
59786;SDS011;45672;51.612;5.536;2024-03-22T03:19:17;41.30;;;25.45;;
59786;SDS011;45672;51.612;5.536;2024-03-22T03:21:42;41.92;;;26.02;;
59786;SDS011;45672;51.612;5.536;2024-03-22T03:24:07;44.28;;;26.42;;
59786;SDS011;45672;51.612;5.536;2024-03-22T03:26:34;45.40;;;27.67;;
59786;SDS011;45672;51.612;5.536;2024-03-22T03:28:59;44.03;;;26.73;;
59786;SDS011;45672;51.612;5.536;2024-03-22T03:31:25;46.10;;;25.95;;
59786;SDS011;45672;51.612;5.536;2024-03-22T03:33:50;43.45;;;25.85;;
59786;SDS011;45672;51.612;5.536;2024-03-22T03:36:16;45.92;;;27.00;;
59786;SDS011;45672;51.612;5.536;2024-03-22T03:38:41;45.80;;;26.98;;
59786;SDS011;45672;51.612;5.536;2024-03-22T03:41:07;45.30;;;26.45;;
59786;SDS011;45672;51.612;5.536;2024-03-22T03:43:32;41.85;;;24.80;;
59786;SDS011;45672;51.612;5.536;2024-03-22T03:45:57;42.00;;;25.83;;
59786;SDS011;45672;51.612;5.536;2024-03-22T03:48:22;42.85;;;25.10;;
59786;SDS011;45672;51.612;5.536;2024-03-22T03:50:54;43.10;;;25.63;;
59786;SDS011;45672;51.612;5.536;2024-03-22T03:53:24;43.97;;;24.58;;
59786;SDS011;45672;51.612;5.536;2024-03-22T03:55:49;43.78;;;26.42;;
59786;SDS011;45672;51.612;5.536;2024-03-22T03:58:14;41.33;;;25.50;;
59786;SDS011;45672;51.612;5.536;2024-03-22T04:00:41;41.20;;;25.08;;
59786;SDS011;45672;51.612;5.536;2024-03-22T04:03:06;39.95;;;24.38;;
59786;SDS011;45672;51.612;5.536;2024-03-22T04:05:31;41.53;;;25.92;;
59786;SDS011;45672;51.612;5.536;2024-03-22T04:07:57;42.25;;;25.13;;
59786;SDS011;45672;51.612;5.536;2024-03-22T04:10:22;39.30;;;25.02;;
59786;SDS011;45672;51.612;5.536;2024-03-22T04:12:47;42.17;;;24.92;;
59786;SDS011;45672;51.612;5.536;2024-03-22T04:15:12;44.85;;;24.42;;
59786;SDS011;45672;51.612;5.536;2024-03-22T04:17:38;40.58;;;24.90;;
59786;SDS011;45672;51.612;5.536;2024-03-22T04:20:03;39.28;;;24.13;;
59786;SDS011;45672;51.612;5.536;2024-03-22T04:22:29;42.85;;;25.02;;
59786;SDS011;45672;51.612;5.536;2024-03-22T04:24:54;38.58;;;24.85;;
59786;SDS011;45672;51.612;5.536;2024-03-22T04:27:20;39.55;;;25.02;;
59786;SDS011;45672;51.612;5.536;2024-03-22T04:29:48;41.45;;;24.17;;
59786;SDS011;45672;51.612;5.536;2024-03-22T04:32:14;39.17;;;24.50;;
59786;SDS011;45672;51.612;5.536;2024-03-22T04:34:42;36.58;;;23.77;;
59786;SDS011;45672;51.612;5.536;2024-03-22T04:37:07;36.35;;;23.67;;
59786;SDS011;45672;51.612;5.536;2024-03-22T04:39:34;41.72;;;25.10;;
59786;SDS011;45672;51.612;5.536;2024-03-22T04:41:59;39.95;;;24.52;;
59786;SDS011;45672;51.612;5.536;2024-03-22T04:44:24;38.53;;;23.77;;
59786;SDS011;45672;51.612;5.536;2024-03-22T04:46:50;38.88;;;24.27;;
59786;SDS011;45672;51.612;5.536;2024-03-22T04:49:15;38.63;;;24.45;;
59786;SDS011;45672;51.612;5.536;2024-03-22T04:51:41;41.05;;;24.58;;
59786;SDS011;45672;51.612;5.536;2024-03-22T04:54:06;39.35;;;23.30;;
59786;SDS011;45672;51.612;5.536;2024-03-22T04:56:31;34.38;;;22.73;;
59786;SDS011;45672;51.612;5.536;2024-03-22T04:58:57;35.38;;;23.05;;
59786;SDS011;45672;51.612;5.536;2024-03-22T05:01:22;35.10;;;23.05;;
59786;SDS011;45672;51.612;5.536;2024-03-22T05:03:48;36.70;;;23.70;;
59786;SDS011;45672;51.612;5.536;2024-03-22T05:06:14;35.00;;;23.25;;
59786;SDS011;45672;51.612;5.536;2024-03-22T05:08:40;33.60;;;23.23;;
59786;SDS011;45672;51.612;5.536;2024-03-22T05:11:06;34.75;;;23.58;;
59786;SDS011;45672;51.612;5.536;2024-03-22T05:13:32;39.90;;;24.40;;
59786;SDS011;45672;51.612;5.536;2024-03-22T05:15:57;33.40;;;22.70;;
59786;SDS011;45672;51.612;5.536;2024-03-22T05:18:23;40.65;;;23.90;;
59786;SDS011;45672;51.612;5.536;2024-03-22T05:20:48;34.60;;;23.33;;
59786;SDS011;45672;51.612;5.536;2024-03-22T05:23:14;36.05;;;22.95;;
59786;SDS011;45672;51.612;5.536;2024-03-22T05:25:41;37.90;;;23.35;;
59786;SDS011;45672;51.612;5.536;2024-03-22T05:28:07;36.10;;;25.45;;
59786;SDS011;45672;51.612;5.536;2024-03-22T05:30:32;36.25;;;23.05;;
59786;SDS011;45672;51.612;5.536;2024-03-22T05:32:58;39.78;;;22.83;;
59786;SDS011;45672;51.612;5.536;2024-03-22T05:35:23;40.28;;;23.80;;
59786;SDS011;45672;51.612;5.536;2024-03-22T05:37:49;37.92;;;23.00;;
59786;SDS011;45672;51.612;5.536;2024-03-22T05:40:14;36.78;;;22.80;;
59786;SDS011;45672;51.612;5.536;2024-03-22T05:42:41;38.80;;;21.75;;
59786;SDS011;45672;51.612;5.536;2024-03-22T05:45:06;35.13;;;22.25;;
59786;SDS011;45672;51.612;5.536;2024-03-22T05:47:32;32.90;;;21.27;;
59786;SDS011;45672;51.612;5.536;2024-03-22T05:49:58;35.47;;;23.95;;
59786;SDS011;45672;51.612;5.536;2024-03-22T05:52:24;33.10;;;21.02;;
59786;SDS011;45672;51.612;5.536;2024-03-22T05:54:49;34.42;;;20.80;;
59786;SDS011;45672;51.612;5.536;2024-03-22T05:57:14;32.67;;;21.17;;
59786;SDS011;45672;51.612;5.536;2024-03-22T05:59:40;35.33;;;20.73;;
59786;SDS011;45672;51.612;5.536;2024-03-22T06:02:05;36.45;;;21.42;;
59786;SDS011;45672;51.612;5.536;2024-03-22T06:04:31;30.45;;;20.05;;
59786;SDS011;45672;51.612;5.536;2024-03-22T06:06:56;33.65;;;20.20;;
59786;SDS011;45672;51.612;5.536;2024-03-22T06:09:24;29.13;;;18.58;;
59786;SDS011;45672;51.612;5.536;2024-03-22T06:12:02;33.78;;;20.08;;
59786;SDS011;45672;51.612;5.536;2024-03-22T06:14:30;33.80;;;18.88;;
59786;SDS011;45672;51.612;5.536;2024-03-22T06:16:55;31.63;;;19.25;;
59786;SDS011;45672;51.612;5.536;2024-03-22T06:19:21;35.58;;;19.67;;
59786;SDS011;45672;51.612;5.536;2024-03-22T06:21:46;29.98;;;20.02;;
59786;SDS011;45672;51.612;5.536;2024-03-22T06:24:12;29.77;;;19.80;;
59786;SDS011;45672;51.612;5.536;2024-03-22T06:26:37;29.38;;;18.38;;
59786;SDS011;45672;51.612;5.536;2024-03-22T06:29:02;33.22;;;19.88;;
59786;SDS011;45672;51.612;5.536;2024-03-22T06:31:28;28.05;;;19.20;;
59786;SDS011;45672;51.612;5.536;2024-03-22T06:33:53;27.05;;;17.83;;
59786;SDS011;45672;51.612;5.536;2024-03-22T06:36:19;27.17;;;17.65;;
59786;SDS011;45672;51.612;5.536;2024-03-22T06:38:44;25.80;;;17.98;;
59786;SDS011;45672;51.612;5.536;2024-03-22T06:41:10;29.25;;;17.75;;
59786;SDS011;45672;51.612;5.536;2024-03-22T06:43:35;27.73;;;17.63;;
59786;SDS011;45672;51.612;5.536;2024-03-22T06:46:00;26.80;;;17.55;;
59786;SDS011;45672;51.612;5.536;2024-03-22T06:48:26;27.05;;;17.50;;
59786;SDS011;45672;51.612;5.536;2024-03-22T06:50:51;26.48;;;17.42;;
59786;SDS011;45672;51.612;5.536;2024-03-22T06:53:16;26.08;;;17.80;;
59786;SDS011;45672;51.612;5.536;2024-03-22T06:55:42;27.08;;;17.42;;
59786;SDS011;45672;51.612;5.536;2024-03-22T06:58:07;26.33;;;16.95;;
59786;SDS011;45672;51.612;5.536;2024-03-22T07:00:32;25.70;;;16.65;;
59786;SDS011;45672;51.612;5.536;2024-03-22T07:02:59;26.55;;;17.17;;
59786;SDS011;45672;51.612;5.536;2024-03-22T07:05:27;25.55;;;15.57;;
59786;SDS011;45672;51.612;5.536;2024-03-22T07:07:52;24.98;;;16.60;;
59786;SDS011;45672;51.612;5.536;2024-03-22T07:10:21;24.20;;;16.73;;
59786;SDS011;45672;51.612;5.536;2024-03-22T07:12:47;22.42;;;15.48;;
59786;SDS011;45672;51.612;5.536;2024-03-22T07:15:13;24.50;;;15.57;;
59786;SDS011;45672;51.612;5.536;2024-03-22T07:17:38;27.83;;;16.50;;
59786;SDS011;45672;51.612;5.536;2024-03-22T07:20:03;28.55;;;16.90;;
59786;SDS011;45672;51.612;5.536;2024-03-22T07:22:29;22.73;;;16.17;;
59786;SDS011;45672;51.612;5.536;2024-03-22T07:24:55;25.05;;;16.52;;
59786;SDS011;45672;51.612;5.536;2024-03-22T07:27:20;25.27;;;17.73;;
59786;SDS011;45672;51.612;5.536;2024-03-22T07:29:46;20.55;;;15.73;;
59786;SDS011;45672;51.612;5.536;2024-03-22T07:32:11;22.02;;;16.73;;
59786;SDS011;45672;51.612;5.536;2024-03-22T07:34:36;20.85;;;16.20;;
59786;SDS011;45672;51.612;5.536;2024-03-22T07:37:02;22.02;;;16.27;;
59786;SDS011;45672;51.612;5.536;2024-03-22T07:39:29;24.73;;;17.58;;
59786;SDS011;45672;51.612;5.536;2024-03-22T07:41:54;22.80;;;17.25;;
59786;SDS011;45672;51.612;5.536;2024-03-22T07:44:20;26.73;;;17.27;;
59786;SDS011;45672;51.612;5.536;2024-03-22T07:46:45;25.42;;;17.95;;
59786;SDS011;45672;51.612;5.536;2024-03-22T07:49:11;23.73;;;16.90;;
59786;SDS011;45672;51.612;5.536;2024-03-22T07:51:37;23.45;;;16.85;;
59786;SDS011;45672;51.612;5.536;2024-03-22T07:54:03;21.10;;;16.98;;
59786;SDS011;45672;51.612;5.536;2024-03-22T07:56:28;24.45;;;16.70;;
59786;SDS011;45672;51.612;5.536;2024-03-22T07:58:53;23.60;;;17.25;;
59786;SDS011;45672;51.612;5.536;2024-03-22T08:01:19;28.55;;;19.23;;
59786;SDS011;45672;51.612;5.536;2024-03-22T08:03:44;28.15;;;18.70;;
59786;SDS011;45672;51.612;5.536;2024-03-22T08:06:10;24.75;;;18.77;;
59786;SDS011;45672;51.612;5.536;2024-03-22T08:08:35;25.73;;;18.58;;
59786;SDS011;45672;51.612;5.536;2024-03-22T08:11:00;25.25;;;19.17;;
59786;SDS011;45672;51.612;5.536;2024-03-22T08:13:26;24.48;;;18.70;;
59786;SDS011;45672;51.612;5.536;2024-03-22T08:15:51;24.17;;;19.02;;
59786;SDS011;45672;51.612;5.536;2024-03-22T08:18:16;31.02;;;19.55;;
59786;SDS011;45672;51.612;5.536;2024-03-22T08:20:42;29.00;;;20.40;;
59786;SDS011;45672;51.612;5.536;2024-03-22T08:23:07;27.33;;;20.67;;
59786;SDS011;45672;51.612;5.536;2024-03-22T08:25:32;26.83;;;18.77;;
59786;SDS011;45672;51.612;5.536;2024-03-22T08:27:58;28.92;;;19.30;;
59786;SDS011;45672;51.612;5.536;2024-03-22T08:30:24;23.58;;;18.55;;
59786;SDS011;45672;51.612;5.536;2024-03-22T08:32:50;24.23;;;18.77;;
59786;SDS011;45672;51.612;5.536;2024-03-22T08:35:15;23.50;;;18.63;;
59786;SDS011;45672;51.612;5.536;2024-03-22T08:37:41;32.03;;;19.67;;
59786;SDS011;45672;51.612;5.536;2024-03-22T08:40:06;28.60;;;20.13;;
59786;SDS011;45672;51.612;5.536;2024-03-22T08:42:32;25.20;;;17.70;;
59786;SDS011;45672;51.612;5.536;2024-03-22T08:44:57;24.23;;;20.83;;
59786;SDS011;45672;51.612;5.536;2024-03-22T08:47:23;26.65;;;20.30;;
59786;SDS011;45672;51.612;5.536;2024-03-22T08:49:48;28.55;;;18.63;;
59786;SDS011;45672;51.612;5.536;2024-03-22T08:52:14;26.83;;;20.27;;
59786;SDS011;45672;51.612;5.536;2024-03-22T08:54:40;25.80;;;21.60;;
59786;SDS011;45672;51.612;5.536;2024-03-22T08:57:05;26.98;;;20.08;;
59786;SDS011;45672;51.612;5.536;2024-03-22T08:59:30;26.30;;;18.98;;
59786;SDS011;45672;51.612;5.536;2024-03-22T09:01:56;30.90;;;19.38;;
59786;SDS011;45672;51.612;5.536;2024-03-22T09:04:21;24.60;;;18.42;;
59786;SDS011;45672;51.612;5.536;2024-03-22T09:06:46;25.58;;;18.75;;
59786;SDS011;45672;51.612;5.536;2024-03-22T09:09:12;24.55;;;18.42;;
59786;SDS011;45672;51.612;5.536;2024-03-22T09:11:37;22.55;;;18.10;;
59786;SDS011;45672;51.612;5.536;2024-03-22T09:14:02;24.95;;;18.52;;
59786;SDS011;45672;51.612;5.536;2024-03-22T09:16:28;25.23;;;18.70;;
59786;SDS011;45672;51.612;5.536;2024-03-22T09:18:53;25.25;;;18.63;;
59786;SDS011;45672;51.612;5.536;2024-03-22T09:21:19;27.73;;;17.55;;
59786;SDS011;45672;51.612;5.536;2024-03-22T09:23:44;27.17;;;18.67;;
59786;SDS011;45672;51.612;5.536;2024-03-22T09:26:10;25.25;;;18.73;;
59786;SDS011;45672;51.612;5.536;2024-03-22T09:28:35;28.77;;;18.05;;
59786;SDS011;45672;51.612;5.536;2024-03-22T09:31:04;21.88;;;16.98;;
59786;SDS011;45672;51.612;5.536;2024-03-22T09:33:30;24.42;;;16.88;;
59786;SDS011;45672;51.612;5.536;2024-03-22T09:35:56;27.70;;;17.52;;
59786;SDS011;45672;51.612;5.536;2024-03-22T09:38:21;22.90;;;17.13;;
59786;SDS011;45672;51.612;5.536;2024-03-22T09:40:47;26.17;;;17.35;;
59786;SDS011;45672;51.612;5.536;2024-03-22T09:43:12;27.60;;;16.65;;
59786;SDS011;45672;51.612;5.536;2024-03-22T09:45:43;23.80;;;16.17;;
59786;SDS011;45672;51.612;5.536;2024-03-22T09:48:10;21.95;;;15.77;;
59786;SDS011;45672;51.612;5.536;2024-03-22T09:50:35;22.70;;;15.65;;
59786;SDS011;45672;51.612;5.536;2024-03-22T09:53:01;18.20;;;14.93;;
59786;SDS011;45672;51.612;5.536;2024-03-22T09:55:28;17.98;;;14.23;;
59786;SDS011;45672;51.612;5.536;2024-03-22T09:57:55;18.35;;;14.38;;
59786;SDS011;45672;51.612;5.536;2024-03-22T10:00:21;19.17;;;14.85;;
59786;SDS011;45672;51.612;5.536;2024-03-22T10:02:47;19.60;;;14.82;;
59786;SDS011;45672;51.612;5.536;2024-03-22T10:05:14;21.83;;;15.18;;
59786;SDS011;45672;51.612;5.536;2024-03-22T10:07:41;21.20;;;15.55;;
59786;SDS011;45672;51.612;5.536;2024-03-22T10:10:08;19.10;;;14.82;;
59786;SDS011;45672;51.612;5.536;2024-03-22T10:12:33;21.70;;;15.80;;
59786;SDS011;45672;51.612;5.536;2024-03-22T10:14:59;19.95;;;16.30;;
59786;SDS011;45672;51.612;5.536;2024-03-22T10:17:26;20.85;;;16.52;;
59786;SDS011;45672;51.612;5.536;2024-03-22T10:19:52;22.65;;;16.17;;
59786;SDS011;45672;51.612;5.536;2024-03-22T10:22:17;19.40;;;14.93;;
59786;SDS011;45672;51.612;5.536;2024-03-22T10:24:43;19.05;;;15.38;;
59786;SDS011;45672;51.612;5.536;2024-03-22T10:27:09;21.65;;;15.95;;
59786;SDS011;45672;51.612;5.536;2024-03-22T10:29:35;23.42;;;15.98;;
59786;SDS011;45672;51.612;5.536;2024-03-22T10:32:00;20.52;;;15.40;;
59786;SDS011;45672;51.612;5.536;2024-03-22T10:34:26;23.63;;;18.55;;
59786;SDS011;45672;51.612;5.536;2024-03-22T10:36:53;21.75;;;16.13;;
59786;SDS011;45672;51.612;5.536;2024-03-22T10:39:21;33.95;;;22.23;;
59786;SDS011;45672;51.612;5.536;2024-03-22T10:41:49;60.60;;;39.83;;
59786;SDS011;45672;51.612;5.536;2024-03-22T10:44:15;18.27;;;14.73;;
59786;SDS011;45672;51.612;5.536;2024-03-22T10:46:44;25.20;;;17.63;;
59786;SDS011;45672;51.612;5.536;2024-03-22T10:49:15;20.02;;;13.75;;
59786;SDS011;45672;51.612;5.536;2024-03-22T10:51:51;16.77;;;13.35;;
59786;SDS011;45672;51.612;5.536;2024-03-22T10:54:22;22.05;;;14.05;;
59786;SDS011;45672;51.612;5.536;2024-03-22T10:56:51;21.08;;;13.40;;
59786;SDS011;45672;51.612;5.536;2024-03-22T10:59:20;18.20;;;13.00;;
59786;SDS011;45672;51.612;5.536;2024-03-22T11:01:47;23.05;;;14.15;;
59786;SDS011;45672;51.612;5.536;2024-03-22T11:04:15;19.83;;;13.75;;
59786;SDS011;45672;51.612;5.536;2024-03-22T11:06:48;22.40;;;13.85;;
59786;SDS011;45672;51.612;5.536;2024-03-22T11:09:26;25.48;;;14.48;;
59786;SDS011;45672;51.612;5.536;2024-03-22T11:11:52;17.98;;;13.75;;
59786;SDS011;45672;51.612;5.536;2024-03-22T11:14:19;17.50;;;12.35;;
59786;SDS011;45672;51.612;5.536;2024-03-22T11:16:49;16.27;;;11.60;;
59786;SDS011;45672;51.612;5.536;2024-03-22T11:19:14;18.00;;;11.05;;
59786;SDS011;45672;51.612;5.536;2024-03-22T11:21:40;20.00;;;11.80;;
59786;SDS011;45672;51.612;5.536;2024-03-22T11:24:05;18.20;;;11.23;;
59786;SDS011;45672;51.612;5.536;2024-03-22T11:26:34;16.45;;;10.50;;
59786;SDS011;45672;51.612;5.536;2024-03-22T11:28:59;15.55;;;10.57;;
59786;SDS011;45672;51.612;5.536;2024-03-22T11:31:25;17.17;;;11.15;;
59786;SDS011;45672;51.612;5.536;2024-03-22T11:33:54;15.43;;;10.02;;
59786;SDS011;45672;51.612;5.536;2024-03-22T11:36:21;13.70;;;9.60;;
59786;SDS011;45672;51.612;5.536;2024-03-22T11:38:47;20.02;;;10.60;;
59786;SDS011;45672;51.612;5.536;2024-03-22T11:41:18;15.43;;;9.98;;
59786;SDS011;45672;51.612;5.536;2024-03-22T11:43:47;10.73;;;9.50;;
59786;SDS011;45672;51.612;5.536;2024-03-22T11:46:14;12.75;;;9.13;;
59786;SDS011;45672;51.612;5.536;2024-03-22T11:48:41;13.52;;;9.45;;
59786;SDS011;45672;51.612;5.536;2024-03-22T11:51:07;16.33;;;10.13;;
59786;SDS011;45672;51.612;5.536;2024-03-22T11:53:33;12.07;;;9.50;;
59786;SDS011;45672;51.612;5.536;2024-03-22T11:55:59;12.43;;;8.93;;
59786;SDS011;45672;51.612;5.536;2024-03-22T11:58:26;16.88;;;8.93;;
59786;SDS011;45672;51.612;5.536;2024-03-22T12:00:51;13.68;;;9.48;;
59786;SDS011;45672;51.612;5.536;2024-03-22T12:03:17;18.52;;;8.90;;
59786;SDS011;45672;51.612;5.536;2024-03-22T12:05:43;15.93;;;9.80;;
59786;SDS011;45672;51.612;5.536;2024-03-22T12:08:08;15.85;;;10.32;;
59786;SDS011;45672;51.612;5.536;2024-03-22T12:10:33;14.43;;;9.30;;
59786;SDS011;45672;51.612;5.536;2024-03-22T12:12:59;13.40;;;9.50;;
59786;SDS011;45672;51.612;5.536;2024-03-22T12:15:24;14.15;;;9.93;;
59786;SDS011;45672;51.612;5.536;2024-03-22T12:17:49;12.45;;;10.07;;
59786;SDS011;45672;51.612;5.536;2024-03-22T12:20:15;11.27;;;9.25;;
59786;SDS011;45672;51.612;5.536;2024-03-22T12:22:40;16.45;;;9.65;;
59786;SDS011;45672;51.612;5.536;2024-03-22T12:25:06;13.32;;;8.77;;
59786;SDS011;45672;51.612;5.536;2024-03-22T12:27:34;13.85;;;9.07;;
59786;SDS011;45672;51.612;5.536;2024-03-22T12:30:00;15.15;;;8.10;;
59786;SDS011;45672;51.612;5.536;2024-03-22T12:32:25;17.90;;;9.00;;
59786;SDS011;45672;51.612;5.536;2024-03-22T12:34:50;11.23;;;8.90;;
59786;SDS011;45672;51.612;5.536;2024-03-22T12:37:15;12.00;;;9.32;;
59786;SDS011;45672;51.612;5.536;2024-03-22T12:39:41;10.73;;;9.05;;
59786;SDS011;45672;51.612;5.536;2024-03-22T12:42:06;18.42;;;13.75;;
59786;SDS011;45672;51.612;5.536;2024-03-22T12:44:32;10.90;;;8.90;;
59786;SDS011;45672;51.612;5.536;2024-03-22T12:46:57;14.32;;;11.10;;
59786;SDS011;45672;51.612;5.536;2024-03-22T12:49:23;13.20;;;10.73;;
59786;SDS011;45672;51.612;5.536;2024-03-22T12:51:49;11.20;;;9.07;;
59786;SDS011;45672;51.612;5.536;2024-03-22T12:54:14;15.38;;;11.93;;
59786;SDS011;45672;51.612;5.536;2024-03-22T12:56:43;11.57;;;9.05;;
59786;SDS011;45672;51.612;5.536;2024-03-22T12:59:08;12.73;;;10.05;;
59786;SDS011;45672;51.612;5.536;2024-03-22T13:01:34;11.70;;;10.13;;
59786;SDS011;45672;51.612;5.536;2024-03-22T13:04:01;12.23;;;10.57;;
59786;SDS011;45672;51.612;5.536;2024-03-22T13:06:26;9.38;;;8.48;;
59786;SDS011;45672;51.612;5.536;2024-03-22T13:08:52;9.40;;;8.48;;
59786;SDS011;45672;51.612;5.536;2024-03-22T13:11:17;12.35;;;9.43;;
59786;SDS011;45672;51.612;5.536;2024-03-22T13:13:42;13.13;;;11.82;;
59786;SDS011;45672;51.612;5.536;2024-03-22T13:16:08;12.98;;;9.80;;
59786;SDS011;45672;51.612;5.536;2024-03-22T13:18:36;10.60;;;9.45;;
59786;SDS011;45672;51.612;5.536;2024-03-22T13:21:02;20.17;;;17.75;;
59786;SDS011;45672;51.612;5.536;2024-03-22T13:23:29;21.00;;;18.63;;
59786;SDS011;45672;51.612;5.536;2024-03-22T13:25:55;33.80;;;22.83;;
59786;SDS011;45672;51.612;5.536;2024-03-22T13:28:24;34.35;;;20.90;;
59786;SDS011;45672;51.612;5.536;2024-03-22T13:30:49;39.90;;;22.65;;
59786;SDS011;45672;51.612;5.536;2024-03-22T13:33:24;21.00;;;13.05;;
59786;SDS011;45672;51.612;5.536;2024-03-22T13:35:49;23.88;;;16.70;;
59786;SDS011;45672;51.612;5.536;2024-03-22T13:38:15;21.80;;;15.13;;
59786;SDS011;45672;51.612;5.536;2024-03-22T13:40:41;20.90;;;18.02;;
59786;SDS011;45672;51.612;5.536;2024-03-22T13:43:06;13.27;;;9.32;;
59786;SDS011;45672;51.612;5.536;2024-03-22T13:45:32;10.10;;;8.23;;
59786;SDS011;45672;51.612;5.536;2024-03-22T13:47:58;10.73;;;8.35;;
59786;SDS011;45672;51.612;5.536;2024-03-22T13:50:23;9.32;;;8.18;;
59786;SDS011;45672;51.612;5.536;2024-03-22T13:52:48;11.23;;;8.45;;
59786;SDS011;45672;51.612;5.536;2024-03-22T13:55:13;10.23;;;8.85;;
59786;SDS011;45672;51.612;5.536;2024-03-22T13:57:39;9.82;;;8.85;;
59786;SDS011;45672;51.612;5.536;2024-03-22T14:00:04;13.40;;;8.88;;
59786;SDS011;45672;51.612;5.536;2024-03-22T14:02:32;9.15;;;7.03;;
59786;SDS011;45672;51.612;5.536;2024-03-22T14:04:58;8.35;;;7.35;;
59786;SDS011;45672;51.612;5.536;2024-03-22T14:07:23;13.32;;;10.13;;
59786;SDS011;45672;51.612;5.536;2024-03-22T14:09:48;16.65;;;13.77;;
59786;SDS011;45672;51.612;5.536;2024-03-22T14:12:14;12.57;;;10.50;;
59786;SDS011;45672;51.612;5.536;2024-03-22T14:14:39;15.38;;;11.75;;